Avalon Express — WDD7919 — position and weather

sailwx.info

Track history (hours):
 
Tides and Currents Weather Stations Pressure Air Temp Water Temp Dewpoint Dewpoint Depression Visibility Wind Speed Wind Dir Waves Ship Positions

Avalon Express

Owner: RGWT INC, San Pedro, CA. More information available from US FCC via Universal Licensing System and Coast Guard Vessel Documentation Center.

Last reported at 2015-Jun-29 05:33 UTC. Time now 2015-Jun-30 03:30 UTC.
Position N 33°44' W 118°17'.

Type: High speed craft. MMSI: 367192940.

Date/timePositionNaut miles runAvg speedWind from/ knotsBaromVisibWave heightAir tempDewpointWater temp
2015-Jun-29 05:33N 33°44' W 118°17'2121.0
2015-Jun-29 04:34N 33°24' W 118°19'9 8.6
2015-Jun-29 03:34N 33°32' W 118°17'1312.9
2015-Jun-29 02:33N 33°45' W 118°16'1817.6
2015-Jun-29 01:34N 33°30' W 118°27'1 1.4
2015-Jun-29 00:34N 33°29' W 118°28'1918.9
2015-Jun-28 23:34N 33°45' W 118°16'6 5.7
2015-Jun-28 22:33N 33°39' W 118°17'1611.8
2015-Jun-28 21:12N 33°27' W 118°30'5 7.6
2015-Jun-28 20:34N 33°26' W 118°24'5 5.2
2015-Jun-28 19:34N 33°25' W 118°18'2019.6
2015-Jun-28 18:33N 33°45' W 118°16'6 6.5
2015-Jun-28 17:34N 33°39' W 118°18'1510.7
2015-Jun-28 16:08N 33°27' W 118°30'1424.3
2015-Jun-28 15:33N 33°38' W 118°19'8 7.1
2015-Jun-28 14:30N 33°45' W 118°16'0 0.0
2015-Jun-28 13:21N 33°45' W 118°16'0 0.0
2015-Jun-27 20:33N 33°45' W 118°16'0 0.0
2015-Jun-27 19:33N 33°45' W 118°16'2118.1
2015-Jun-27 18:23N 33°24' W 118°18'0 0.3
2015-Jun-27 17:33N 33°24' W 118°18'2120.8
2015-Jun-27 16:33N 33°45' W 118°17'0 0.3
2015-Jun-27 15:33N 33°45' W 118°16'0 0.0
2015-Jun-27 14:34N 33°45' W 118°16'0 0.0
2015-Jun-27 13:33N 33°45' W 118°16'0 0.0
2015-Jun-27 12:33N 33°45' W 118°16'0 0.0
2015-Jun-26 19:33N 33°45' W 118°17'2019.2
2015-Jun-26 18:29N 33°24' W 118°18'6 6.5
2015-Jun-26 17:33N 33°30' W 118°18'1514.7
2015-Jun-26 16:34N 33°45' W 118°16'0 0.0
2015-Jun-26 15:32N 33°45' W 118°16'0 0.0
2015-Jun-26 14:33N 33°45' W 118°16'0 0.0
2015-Jun-26 13:33N 33°45' W 118°16'0 0.0
2015-Jun-26 12:34N 33°45' W 118°16'  
2015-Jun-21 23:08N 33°44' W 118°17'1018.3
2015-Jun-21 22:33N 33°34' W 118°17'1313.4
2015-Jun-21 21:33N 33°21' W 118°19'1717.3
2015-Jun-21 20:34N 33°38' W 118°16'7 7.3
2015-Jun-21 19:33N 33°45' W 118°16'1717.0
2015-Jun-21 18:33N 33°28' W 118°18'1 1.4
2015-Jun-21 17:33N 33°27' W 118°19'1818.3
2015-Jun-21 16:33N 33°45' W 118°16'0 0.0
2015-Jun-21 15:33N 33°45' W 118°16'0 0.0
2015-Jun-21 14:33N 33°45' W 118°16'0 0.0
2015-Jun-21 13:33N 33°45' W 118°16'0 0.0
2015-Jun-20 20:20N 33°45' W 118°16'0 0.1
2015-Jun-20 19:33N 33°45' W 118°16'1716.7
2015-Jun-20 18:33N 33°28' W 118°18'4 3.7
2015-Jun-20 17:34N 33°25' W 118°18'2020.1
2015-Jun-20 16:33N 33°45' W 118°17'0 0.4
2015-Jun-20 15:33N 33°45' W 118°16'0 0.0
2015-Jun-20 14:33N 33°45' W 118°16'0 0.0
2015-Jun-20 13:33N 33°45' W 118°16'0 0.0
2015-Jun-20 12:33N 33°45' W 118°16'0 0.0
2015-Jun-20 04:32N 33°45' W 118°16'0 0.0
2015-Jun-20 03:33N 33°45' W 118°16'5 5.3
2015-Jun-20 02:33N 33°40' W 118°15'2019.6
2015-Jun-20 01:33N 33°21' W 118°19'1817.8
2015-Jun-20 00:34N 33°38' W 118°15'7 6.9
2015-Jun-19 23:34N 33°45' W 118°16'1212.0
2015-Jun-19 22:34N 33°33' W 118°16'1312.6
2015-Jun-19 21:33N 33°21' W 118°19'1616.2
2015-Jun-19 20:34N 33°37' W 118°16'8 8.4
2015-Jun-19 19:33N 33°45' W 118°16'1 1.1
2015-Jun-19 18:33N 33°44' W 118°16'2323.3
2015-Jun-19 17:33N 33°21' W 118°19'1818.0
2015-Jun-19 16:33N 33°39' W 118°15'7 6.5
2015-Jun-19 15:34N 33°45' W 118°16'0 0.0
2015-Jun-19 14:33N 33°45' W 118°16'0 0.0
2015-Jun-19 13:34N 33°45' W 118°16'  
Track history (hours):
 
Tides and Currents Weather Stations Pressure Air Temp Water Temp Dewpoint Dewpoint Depression Visibility Wind Speed Wind Dir Waves Ship Positions

Avalon Express

Owner: RGWT INC, San Pedro, CA. More information available from US FCC via Universal Licensing System and Coast Guard Vessel Documentation Center.

Last reported at 2015-Jun-29 05:33 UTC. Time now 2015-Jun-30 03:30 UTC.
Position N 33°44' W 118°17'.

Type: High speed craft. MMSI: 367192940.

Date/timePositionNaut miles runAvg speedWind from/ knotsBaromVisibWave heightAir tempDewpointWater temp
2015-Jun-29 05:33N 33°44' W 118°17'2121.0
2015-Jun-29 04:34N 33°24' W 118°19'9 8.6
2015-Jun-29 03:34N 33°32' W 118°17'1312.9
2015-Jun-29 02:33N 33°45' W 118°16'1817.6
2015-Jun-29 01:34N 33°30' W 118°27'1 1.4
2015-Jun-29 00:34N 33°29' W 118°28'1918.9
2015-Jun-28 23:34N 33°45' W 118°16'6 5.7
2015-Jun-28 22:33N 33°39' W 118°17'1611.8
2015-Jun-28 21:12N 33°27' W 118°30'5 7.6
2015-Jun-28 20:34N 33°26' W 118°24'5 5.2
2015-Jun-28 19:34N 33°25' W 118°18'2019.6
2015-Jun-28 18:33N 33°45' W 118°16'6 6.5
2015-Jun-28 17:34N 33°39' W 118°18'1510.7
2015-Jun-28 16:08N 33°27' W 118°30'1424.3
2015-Jun-28 15:33N 33°38' W 118°19'8 7.1
2015-Jun-28 14:30N 33°45' W 118°16'0 0.0
2015-Jun-28 13:21N 33°45' W 118°16'0 0.0
2015-Jun-27 20:33N 33°45' W 118°16'0 0.0
2015-Jun-27 19:33N 33°45' W 118°16'2118.1
2015-Jun-27 18:23N 33°24' W 118°18'0 0.3
2015-Jun-27 17:33N 33°24' W 118°18'2120.8
2015-Jun-27 16:33N 33°45' W 118°17'0 0.3
2015-Jun-27 15:33N 33°45' W 118°16'0 0.0
2015-Jun-27 14:34N 33°45' W 118°16'0 0.0
2015-Jun-27 13:33N 33°45' W 118°16'0 0.0
2015-Jun-27 12:33N 33°45' W 118°16'0 0.0
2015-Jun-26 19:33N 33°45' W 118°17'2019.2
2015-Jun-26 18:29N 33°24' W 118°18'6 6.5
2015-Jun-26 17:33N 33°30' W 118°18'1514.7
2015-Jun-26 16:34N 33°45' W 118°16'0 0.0
2015-Jun-26 15:32N 33°45' W 118°16'0 0.0
2015-Jun-26 14:33N 33°45' W 118°16'0 0.0
2015-Jun-26 13:33N 33°45' W 118°16'0 0.0
2015-Jun-26 12:34N 33°45' W 118°16'  
2015-Jun-21 23:08N 33°44' W 118°17'1018.3
2015-Jun-21 22:33N 33°34' W 118°17'1313.4
2015-Jun-21 21:33N 33°21' W 118°19'1717.3
2015-Jun-21 20:34N 33°38' W 118°16'7 7.3
2015-Jun-21 19:33N 33°45' W 118°16'1717.0
2015-Jun-21 18:33N 33°28' W 118°18'1 1.4
2015-Jun-21 17:33N 33°27' W 118°19'1818.3
2015-Jun-21 16:33N 33°45' W 118°16'0 0.0
2015-Jun-21 15:33N 33°45' W 118°16'0 0.0
2015-Jun-21 14:33N 33°45' W 118°16'0 0.0
2015-Jun-21 13:33N 33°45' W 118°16'0 0.0
2015-Jun-20 20:20N 33°45' W 118°16'0 0.1
2015-Jun-20 19:33N 33°45' W 118°16'1716.7
2015-Jun-20 18:33N 33°28' W 118°18'4 3.7
2015-Jun-20 17:34N 33°25' W 118°18'2020.1
2015-Jun-20 16:33N 33°45' W 118°17'0 0.4
2015-Jun-20 15:33N 33°45' W 118°16'0 0.0
2015-Jun-20 14:33N 33°45' W 118°16'0 0.0
2015-Jun-20 13:33N 33°45' W 118°16'0 0.0
2015-Jun-20 12:33N 33°45' W 118°16'0 0.0
2015-Jun-20 04:32N 33°45' W 118°16'0 0.0
2015-Jun-20 03:33N 33°45' W 118°16'5 5.3
2015-Jun-20 02:33N 33°40' W 118°15'2019.6
2015-Jun-20 01:33N 33°21' W 118°19'1817.8
2015-Jun-20 00:34N 33°38' W 118°15'7 6.9
2015-Jun-19 23:34N 33°45' W 118°16'1212.0
2015-Jun-19 22:34N 33°33' W 118°16'1312.6
2015-Jun-19 21:33N 33°21' W 118°19'1616.2
2015-Jun-19 20:34N 33°37' W 118°16'8 8.4
2015-Jun-19 19:33N 33°45' W 118°16'1 1.1
2015-Jun-19 18:33N 33°44' W 118°16'2323.3
2015-Jun-19 17:33N 33°21' W 118°19'1818.0
2015-Jun-19 16:33N 33°39' W 118°15'7 6.5
2015-Jun-19 15:34N 33°45' W 118°16'0 0.0
2015-Jun-19 14:33N 33°45' W 118°16'0 0.0
2015-Jun-19 13:34N 33°45' W 118°16'  

Dump ship's entire track history